Lake Harmony, Pennsylvania
Current Conditions -  °F | °C
As of 5:53 PM on Tuesday 25 Nov 2014 (Local Time) from KMPO Reporting Station
Clear Clear  
Wind Chill: 37°   Ceiling: Unl
Heat Index: 41°   Visibility: 10mi
Dew Point: 25°   Wind: 6mph
Humidity: 53%   Direction: 280°W
Pressure: 30"   Gusts: NA
Location:  41.06°N, 75.59°W
Report Text: KMPO 252253Z AUTO 28005KT 10SM CLR 05/M04 A3000 RMK AO2 SLP170 T00501039
Loading
Personal Weather Stations






























Interactive Weather Map New forecast layout! Learn more

10-Day Weather Forecast

Advertisements
Track Severe Weather on mobile